sensor_id;sensor_type;location;lat;lon;timestamp;P1;durP1;ratioP1;P2;durP2;ratioP2
7193;SDS011;3638;48.820;9.244;2024-03-08T00:00:07;27.33;;;20.47;;
7193;SDS011;3638;48.820;9.244;2024-03-08T00:02:37;26.47;;;20.43;;
7193;SDS011;3638;48.820;9.244;2024-03-08T00:05:05;27.10;;;21.93;;
7193;SDS011;3638;48.820;9.244;2024-03-08T00:07:33;30.30;;;21.23;;
7193;SDS011;3638;48.820;9.244;2024-03-08T00:10:02;29.73;;;21.60;;
7193;SDS011;3638;48.820;9.244;2024-03-08T00:12:30;29.07;;;20.93;;
7193;SDS011;3638;48.820;9.244;2024-03-08T00:14:57;26.83;;;20.67;;
7193;SDS011;3638;48.820;9.244;2024-03-08T00:17:24;29.70;;;22.50;;
7193;SDS011;3638;48.820;9.244;2024-03-08T00:19:52;28.50;;;21.20;;
7193;SDS011;3638;48.820;9.244;2024-03-08T00:22:19;28.20;;;21.03;;
7193;SDS011;3638;48.820;9.244;2024-03-08T00:24:47;27.27;;;20.77;;
7193;SDS011;3638;48.820;9.244;2024-03-08T00:27:16;27.77;;;21.00;;
7193;SDS011;3638;48.820;9.244;2024-03-08T00:29:46;26.27;;;21.13;;
7193;SDS011;3638;48.820;9.244;2024-03-08T00:32:13;26.63;;;21.00;;
7193;SDS011;3638;48.820;9.244;2024-03-08T00:34:42;29.57;;;21.77;;
7193;SDS011;3638;48.820;9.244;2024-03-08T00:37:09;29.80;;;22.13;;
7193;SDS011;3638;48.820;9.244;2024-03-08T00:39:36;28.63;;;21.60;;
7193;SDS011;3638;48.820;9.244;2024-03-08T00:42:03;27.67;;;21.47;;
7193;SDS011;3638;48.820;9.244;2024-03-08T00:44:32;27.20;;;21.07;;
7193;SDS011;3638;48.820;9.244;2024-03-08T00:46:59;26.73;;;19.77;;
7193;SDS011;3638;48.820;9.244;2024-03-08T00:49:27;27.47;;;20.73;;
7193;SDS011;3638;48.820;9.244;2024-03-08T00:51:54;29.87;;;21.17;;
7193;SDS011;3638;48.820;9.244;2024-03-08T00:54:21;26.97;;;20.37;;
7193;SDS011;3638;48.820;9.244;2024-03-08T00:56:48;30.00;;;20.50;;
7193;SDS011;3638;48.820;9.244;2024-03-08T00:59:16;29.57;;;22.30;;
7193;SDS011;3638;48.820;9.244;2024-03-08T01:01:44;28.20;;;22.13;;
7193;SDS011;3638;48.820;9.244;2024-03-08T01:04:11;30.97;;;22.03;;
7193;SDS011;3638;48.820;9.244;2024-03-08T01:06:39;26.43;;;20.47;;
7193;SDS011;3638;48.820;9.244;2024-03-08T01:09:10;26.43;;;20.03;;
7193;SDS011;3638;48.820;9.244;2024-03-08T01:11:38;26.17;;;20.23;;
7193;SDS011;3638;48.820;9.244;2024-03-08T01:14:05;25.80;;;20.37;;
7193;SDS011;3638;48.820;9.244;2024-03-08T01:16:32;24.77;;;19.77;;
7193;SDS011;3638;48.820;9.244;2024-03-08T01:19:01;26.90;;;19.80;;
7193;SDS011;3638;48.820;9.244;2024-03-08T01:21:29;25.97;;;20.73;;
7193;SDS011;3638;48.820;9.244;2024-03-08T01:23:56;30.27;;;21.80;;
7193;SDS011;3638;48.820;9.244;2024-03-08T01:26:23;29.47;;;21.23;;
7193;SDS011;3638;48.820;9.244;2024-03-08T01:28:51;27.13;;;20.50;;
7193;SDS011;3638;48.820;9.244;2024-03-08T01:31:18;28.70;;;21.23;;
7193;SDS011;3638;48.820;9.244;2024-03-08T01:33:45;31.70;;;22.23;;
7193;SDS011;3638;48.820;9.244;2024-03-08T01:36:14;26.40;;;20.07;;
7193;SDS011;3638;48.820;9.244;2024-03-08T01:38:44;27.30;;;20.77;;
7193;SDS011;3638;48.820;9.244;2024-03-08T01:41:11;29.53;;;21.67;;
7193;SDS011;3638;48.820;9.244;2024-03-08T01:43:39;24.77;;;20.23;;
7193;SDS011;3638;48.820;9.244;2024-03-08T01:46:06;27.60;;;20.10;;
7193;SDS011;3638;48.820;9.244;2024-03-08T01:48:34;26.53;;;20.80;;
7193;SDS011;3638;48.820;9.244;2024-03-08T01:51:01;26.03;;;20.30;;
7193;SDS011;3638;48.820;9.244;2024-03-08T01:53:31;26.33;;;20.27;;
7193;SDS011;3638;48.820;9.244;2024-03-08T01:55:59;30.63;;;21.70;;
7193;SDS011;3638;48.820;9.244;2024-03-08T01:58:27;28.47;;;21.87;;
7193;SDS011;3638;48.820;9.244;2024-03-08T02:00:56;28.17;;;21.67;;
7193;SDS011;3638;48.820;9.244;2024-03-08T02:03:23;25.80;;;20.43;;
7193;SDS011;3638;48.820;9.244;2024-03-08T02:05:51;28.10;;;19.97;;
7193;SDS011;3638;48.820;9.244;2024-03-08T02:08:19;28.20;;;20.70;;
7193;SDS011;3638;48.820;9.244;2024-03-08T02:10:49;28.43;;;20.97;;
7193;SDS011;3638;48.820;9.244;2024-03-08T02:13:16;29.50;;;20.67;;
7193;SDS011;3638;48.820;9.244;2024-03-08T02:15:49;28.23;;;20.50;;
7193;SDS011;3638;48.820;9.244;2024-03-08T02:18:18;27.13;;;20.50;;
7193;SDS011;3638;48.820;9.244;2024-03-08T02:20:47;25.33;;;20.10;;
7193;SDS011;3638;48.820;9.244;2024-03-08T02:23:14;26.93;;;20.43;;
7193;SDS011;3638;48.820;9.244;2024-03-08T02:25:41;24.27;;;19.77;;
7193;SDS011;3638;48.820;9.244;2024-03-08T02:28:09;27.20;;;20.73;;
7193;SDS011;3638;48.820;9.244;2024-03-08T02:30:36;24.23;;;19.93;;
7193;SDS011;3638;48.820;9.244;2024-03-08T02:33:04;24.10;;;18.83;;
7193;SDS011;3638;48.820;9.244;2024-03-08T02:35:31;26.30;;;20.20;;
7193;SDS011;3638;48.820;9.244;2024-03-08T02:38:00;25.50;;;19.30;;
7193;SDS011;3638;48.820;9.244;2024-03-08T02:40:28;24.80;;;19.73;;
7193;SDS011;3638;48.820;9.244;2024-03-08T02:42:57;24.70;;;19.80;;
7193;SDS011;3638;48.820;9.244;2024-03-08T02:45:24;26.60;;;20.00;;
7193;SDS011;3638;48.820;9.244;2024-03-08T02:47:51;25.23;;;19.00;;
7193;SDS011;3638;48.820;9.244;2024-03-08T02:50:18;24.67;;;19.17;;
7193;SDS011;3638;48.820;9.244;2024-03-08T02:52:47;24.77;;;20.17;;
7193;SDS011;3638;48.820;9.244;2024-03-08T02:55:16;28.80;;;19.97;;
7193;SDS011;3638;48.820;9.244;2024-03-08T02:57:43;26.10;;;19.83;;
7193;SDS011;3638;48.820;9.244;2024-03-08T03:00:12;26.40;;;19.80;;
7193;SDS011;3638;48.820;9.244;2024-03-08T03:02:40;25.47;;;19.50;;
7193;SDS011;3638;48.820;9.244;2024-03-08T03:05:08;26.13;;;19.53;;
7193;SDS011;3638;48.820;9.244;2024-03-08T03:07:36;26.67;;;20.13;;
7193;SDS011;3638;48.820;9.244;2024-03-08T03:10:04;24.93;;;20.47;;
7193;SDS011;3638;48.820;9.244;2024-03-08T03:12:34;26.23;;;20.27;;
7193;SDS011;3638;48.820;9.244;2024-03-08T03:15:01;27.10;;;19.93;;
7193;SDS011;3638;48.820;9.244;2024-03-08T03:17:29;26.40;;;20.00;;
7193;SDS011;3638;48.820;9.244;2024-03-08T03:19:56;25.77;;;20.60;;
7193;SDS011;3638;48.820;9.244;2024-03-08T03:22:23;25.40;;;19.87;;
7193;SDS011;3638;48.820;9.244;2024-03-08T03:24:51;26.60;;;20.50;;
7193;SDS011;3638;48.820;9.244;2024-03-08T03:27:18;27.23;;;20.30;;
7193;SDS011;3638;48.820;9.244;2024-03-08T03:29:47;25.77;;;19.90;;
7193;SDS011;3638;48.820;9.244;2024-03-08T03:32:14;25.90;;;20.63;;
7193;SDS011;3638;48.820;9.244;2024-03-08T03:34:43;26.57;;;19.13;;
7193;SDS011;3638;48.820;9.244;2024-03-08T03:37:10;25.97;;;19.43;;
7193;SDS011;3638;48.820;9.244;2024-03-08T03:39:38;28.27;;;19.50;;
7193;SDS011;3638;48.820;9.244;2024-03-08T03:42:13;25.77;;;19.73;;
7193;SDS011;3638;48.820;9.244;2024-03-08T03:44:41;26.00;;;19.10;;
7193;SDS011;3638;48.820;9.244;2024-03-08T03:47:11;30.90;;;20.07;;
7193;SDS011;3638;48.820;9.244;2024-03-08T03:49:39;25.83;;;20.20;;
7193;SDS011;3638;48.820;9.244;2024-03-08T03:52:06;23.37;;;17.83;;
7193;SDS011;3638;48.820;9.244;2024-03-08T03:54:34;26.37;;;19.37;;
7193;SDS011;3638;48.820;9.244;2024-03-08T03:57:01;24.47;;;19.47;;
7193;SDS011;3638;48.820;9.244;2024-03-08T03:59:28;25.00;;;19.20;;
7193;SDS011;3638;48.820;9.244;2024-03-08T04:01:56;22.73;;;18.27;;
7193;SDS011;3638;48.820;9.244;2024-03-08T04:04:25;26.50;;;19.03;;
7193;SDS011;3638;48.820;9.244;2024-03-08T04:06:53;26.40;;;19.17;;
7193;SDS011;3638;48.820;9.244;2024-03-08T04:09:20;26.43;;;19.67;;
7193;SDS011;3638;48.820;9.244;2024-03-08T04:11:47;23.03;;;17.77;;
7193;SDS011;3638;48.820;9.244;2024-03-08T04:14:18;27.93;;;19.80;;
7193;SDS011;3638;48.820;9.244;2024-03-08T04:16:45;27.43;;;20.17;;
7193;SDS011;3638;48.820;9.244;2024-03-08T04:19:13;25.30;;;19.20;;
7193;SDS011;3638;48.820;9.244;2024-03-08T04:21:41;25.67;;;19.03;;
7193;SDS011;3638;48.820;9.244;2024-03-08T04:24:09;24.57;;;19.30;;
7193;SDS011;3638;48.820;9.244;2024-03-08T04:26:36;26.50;;;19.47;;
7193;SDS011;3638;48.820;9.244;2024-03-08T04:29:03;26.67;;;19.87;;
7193;SDS011;3638;48.820;9.244;2024-03-08T04:31:30;25.93;;;20.00;;
7193;SDS011;3638;48.820;9.244;2024-03-08T04:33:57;26.43;;;20.37;;
7193;SDS011;3638;48.820;9.244;2024-03-08T04:36:25;24.83;;;18.47;;
7193;SDS011;3638;48.820;9.244;2024-03-08T04:38:54;27.17;;;19.67;;
7193;SDS011;3638;48.820;9.244;2024-03-08T04:41:22;24.57;;;19.27;;
7193;SDS011;3638;48.820;9.244;2024-03-08T04:43:49;26.37;;;19.67;;
7193;SDS011;3638;48.820;9.244;2024-03-08T04:46:17;25.03;;;19.77;;
7193;SDS011;3638;48.820;9.244;2024-03-08T04:48:44;26.63;;;20.57;;
7193;SDS011;3638;48.820;9.244;2024-03-08T04:51:11;25.53;;;19.47;;
7193;SDS011;3638;48.820;9.244;2024-03-08T04:53:39;26.60;;;19.57;;
7193;SDS011;3638;48.820;9.244;2024-03-08T04:56:07;27.27;;;20.33;;
7193;SDS011;3638;48.820;9.244;2024-03-08T04:58:35;25.80;;;20.00;;
7193;SDS011;3638;48.820;9.244;2024-03-08T05:01:03;27.17;;;20.40;;
7193;SDS011;3638;48.820;9.244;2024-03-08T05:03:30;26.57;;;20.37;;
7193;SDS011;3638;48.820;9.244;2024-03-08T05:05:57;28.33;;;20.47;;
7193;SDS011;3638;48.820;9.244;2024-03-08T05:08:24;25.70;;;20.50;;
7193;SDS011;3638;48.820;9.244;2024-03-08T05:10:52;27.00;;;19.80;;
7193;SDS011;3638;48.820;9.244;2024-03-08T05:13:20;27.80;;;21.13;;
7193;SDS011;3638;48.820;9.244;2024-03-08T05:15:48;25.27;;;20.70;;
7193;SDS011;3638;48.820;9.244;2024-03-08T05:18:16;27.57;;;20.77;;
7193;SDS011;3638;48.820;9.244;2024-03-08T05:20:43;27.53;;;21.03;;
7193;SDS011;3638;48.820;9.244;2024-03-08T05:23:10;28.53;;;21.60;;
7193;SDS011;3638;48.820;9.244;2024-03-08T05:25:38;26.30;;;21.07;;
7193;SDS011;3638;48.820;9.244;2024-03-08T05:28:06;27.50;;;20.83;;
7193;SDS011;3638;48.820;9.244;2024-03-08T05:30:36;28.50;;;20.93;;
7193;SDS011;3638;48.820;9.244;2024-03-08T05:33:05;26.57;;;21.33;;
7193;SDS011;3638;48.820;9.244;2024-03-08T05:35:35;26.57;;;21.20;;
7193;SDS011;3638;48.820;9.244;2024-03-08T05:38:02;26.40;;;20.70;;
7193;SDS011;3638;48.820;9.244;2024-03-08T05:40:29;28.47;;;22.43;;
7193;SDS011;3638;48.820;9.244;2024-03-08T05:42:57;27.40;;;21.17;;
7193;SDS011;3638;48.820;9.244;2024-03-08T05:45:24;28.20;;;21.33;;
7193;SDS011;3638;48.820;9.244;2024-03-08T05:47:53;27.03;;;20.63;;
7193;SDS011;3638;48.820;9.244;2024-03-08T05:50:21;26.77;;;21.47;;
7193;SDS011;3638;48.820;9.244;2024-03-08T05:52:49;28.70;;;21.33;;
7193;SDS011;3638;48.820;9.244;2024-03-08T05:55:16;27.53;;;21.63;;
7193;SDS011;3638;48.820;9.244;2024-03-08T05:57:43;26.13;;;19.93;;
7193;SDS011;3638;48.820;9.244;2024-03-08T06:00:11;27.30;;;21.57;;
7193;SDS011;3638;48.820;9.244;2024-03-08T06:02:40;28.30;;;21.67;;
7193;SDS011;3638;48.820;9.244;2024-03-08T06:05:09;28.23;;;21.40;;
7193;SDS011;3638;48.820;9.244;2024-03-08T06:07:37;27.67;;;21.87;;
7193;SDS011;3638;48.820;9.244;2024-03-08T06:10:06;25.73;;;20.67;;
7193;SDS011;3638;48.820;9.244;2024-03-08T06:12:35;27.87;;;21.57;;
7193;SDS011;3638;48.820;9.244;2024-03-08T06:15:05;28.93;;;21.37;;
7193;SDS011;3638;48.820;9.244;2024-03-08T06:17:33;28.30;;;21.07;;
7193;SDS011;3638;48.820;9.244;2024-03-08T06:20:01;26.67;;;21.70;;
7193;SDS011;3638;48.820;9.244;2024-03-08T06:22:30;26.60;;;22.27;;
7193;SDS011;3638;48.820;9.244;2024-03-08T06:24:57;26.67;;;21.93;;
7193;SDS011;3638;48.820;9.244;2024-03-08T06:27:26;27.13;;;21.83;;
7193;SDS011;3638;48.820;9.244;2024-03-08T06:29:53;26.07;;;21.10;;
7193;SDS011;3638;48.820;9.244;2024-03-08T06:32:20;26.60;;;20.97;;
7193;SDS011;3638;48.820;9.244;2024-03-08T06:34:47;26.07;;;20.77;;
7193;SDS011;3638;48.820;9.244;2024-03-08T06:37:15;25.63;;;20.87;;
7193;SDS011;3638;48.820;9.244;2024-03-08T06:39:48;27.17;;;22.10;;
7193;SDS011;3638;48.820;9.244;2024-03-08T06:42:16;28.00;;;21.00;;
7193;SDS011;3638;48.820;9.244;2024-03-08T06:44:43;27.20;;;20.40;;
7193;SDS011;3638;48.820;9.244;2024-03-08T06:47:14;28.33;;;22.03;;
7193;SDS011;3638;48.820;9.244;2024-03-08T06:49:42;27.87;;;21.13;;
7193;SDS011;3638;48.820;9.244;2024-03-08T06:52:09;27.27;;;20.43;;
7193;SDS011;3638;48.820;9.244;2024-03-08T06:54:36;24.53;;;20.47;;
7193;SDS011;3638;48.820;9.244;2024-03-08T06:57:05;25.07;;;19.83;;
7193;SDS011;3638;48.820;9.244;2024-03-08T06:59:33;25.30;;;19.50;;
7193;SDS011;3638;48.820;9.244;2024-03-08T07:02:00;23.70;;;19.83;;
7193;SDS011;3638;48.820;9.244;2024-03-08T07:04:29;28.50;;;21.10;;
7193;SDS011;3638;48.820;9.244;2024-03-08T07:06:58;25.17;;;20.20;;
7193;SDS011;3638;48.820;9.244;2024-03-08T07:09:27;24.13;;;19.97;;
7193;SDS011;3638;48.820;9.244;2024-03-08T07:11:54;25.97;;;19.73;;
7193;SDS011;3638;48.820;9.244;2024-03-08T07:14:23;25.50;;;19.70;;
7193;SDS011;3638;48.820;9.244;2024-03-08T07:16:51;26.07;;;20.53;;
7193;SDS011;3638;48.820;9.244;2024-03-08T07:19:18;26.37;;;19.27;;
7193;SDS011;3638;48.820;9.244;2024-03-08T07:21:46;24.87;;;19.57;;
7193;SDS011;3638;48.820;9.244;2024-03-08T07:24:13;27.10;;;19.90;;
7193;SDS011;3638;48.820;9.244;2024-03-08T07:27:03;23.43;;;18.83;;
7193;SDS011;3638;48.820;9.244;2024-03-08T07:29:31;24.43;;;19.20;;
7193;SDS011;3638;48.820;9.244;2024-03-08T07:31:59;26.17;;;19.13;;
7193;SDS011;3638;48.820;9.244;2024-03-08T07:34:37;24.40;;;19.27;;
7193;SDS011;3638;48.820;9.244;2024-03-08T07:37:05;23.23;;;18.13;;
7193;SDS011;3638;48.820;9.244;2024-03-08T07:39:36;24.33;;;18.60;;
7193;SDS011;3638;48.820;9.244;2024-03-08T07:42:04;24.37;;;18.33;;
7193;SDS011;3638;48.820;9.244;2024-03-08T07:44:32;22.60;;;18.63;;
7193;SDS011;3638;48.820;9.244;2024-03-08T07:47:00;23.70;;;18.73;;
7193;SDS011;3638;48.820;9.244;2024-03-08T07:49:27;23.37;;;17.93;;
7193;SDS011;3638;48.820;9.244;2024-03-08T07:51:54;25.97;;;18.53;;
7193;SDS011;3638;48.820;9.244;2024-03-08T07:54:22;25.10;;;18.83;;
7193;SDS011;3638;48.820;9.244;2024-03-08T07:56:51;22.30;;;17.80;;
7193;SDS011;3638;48.820;9.244;2024-03-08T07:59:18;24.63;;;19.33;;
7193;SDS011;3638;48.820;9.244;2024-03-08T08:01:47;27.47;;;19.60;;
7193;SDS011;3638;48.820;9.244;2024-03-08T08:04:14;24.10;;;18.47;;
7193;SDS011;3638;48.820;9.244;2024-03-08T08:06:43;23.73;;;17.73;;
7193;SDS011;3638;48.820;9.244;2024-03-08T08:09:10;22.33;;;18.00;;
7193;SDS011;3638;48.820;9.244;2024-03-08T08:11:40;22.53;;;17.93;;
7193;SDS011;3638;48.820;9.244;2024-03-08T08:14:08;23.47;;;18.83;;
7193;SDS011;3638;48.820;9.244;2024-03-08T08:16:35;23.60;;;18.10;;
7193;SDS011;3638;48.820;9.244;2024-03-08T08:19:05;23.40;;;17.97;;
7193;SDS011;3638;48.820;9.244;2024-03-08T08:21:33;22.67;;;18.40;;
7193;SDS011;3638;48.820;9.244;2024-03-08T08:24:01;23.50;;;18.63;;
7193;SDS011;3638;48.820;9.244;2024-03-08T08:26:29;23.93;;;18.87;;
7193;SDS011;3638;48.820;9.244;2024-03-08T08:28:57;24.80;;;18.77;;
7193;SDS011;3638;48.820;9.244;2024-03-08T08:31:25;24.20;;;19.10;;
7193;SDS011;3638;48.820;9.244;2024-03-08T08:33:53;22.67;;;18.53;;
7193;SDS011;3638;48.820;9.244;2024-03-08T08:36:24;22.57;;;17.50;;
7193;SDS011;3638;48.820;9.244;2024-03-08T08:38:54;22.97;;;18.37;;
7193;SDS011;3638;48.820;9.244;2024-03-08T08:41:23;22.03;;;17.53;;
7193;SDS011;3638;48.820;9.244;2024-03-08T08:43:51;21.73;;;17.53;;
7193;SDS011;3638;48.820;9.244;2024-03-08T08:46:19;22.13;;;17.30;;
7193;SDS011;3638;48.820;9.244;2024-03-08T08:48:46;22.23;;;18.20;;
7193;SDS011;3638;48.820;9.244;2024-03-08T08:51:13;23.53;;;18.60;;
7193;SDS011;3638;48.820;9.244;2024-03-08T08:53:42;22.27;;;17.27;;
7193;SDS011;3638;48.820;9.244;2024-03-08T08:56:11;22.83;;;17.97;;
7193;SDS011;3638;48.820;9.244;2024-03-08T08:58:39;23.83;;;18.10;;
7193;SDS011;3638;48.820;9.244;2024-03-08T09:01:07;22.03;;;17.70;;
7193;SDS011;3638;48.820;9.244;2024-03-08T09:03:35;23.53;;;18.30;;
7193;SDS011;3638;48.820;9.244;2024-03-08T09:06:02;21.63;;;16.63;;
7193;SDS011;3638;48.820;9.244;2024-03-08T09:08:30;22.67;;;18.07;;
7193;SDS011;3638;48.820;9.244;2024-03-08T09:11:00;22.63;;;17.07;;
7193;SDS011;3638;48.820;9.244;2024-03-08T09:13:28;23.27;;;17.37;;
7193;SDS011;3638;48.820;9.244;2024-03-08T09:15:55;24.73;;;18.70;;
7193;SDS011;3638;48.820;9.244;2024-03-08T09:18:23;24.03;;;17.87;;
7193;SDS011;3638;48.820;9.244;2024-03-08T09:20:50;22.17;;;17.37;;
7193;SDS011;3638;48.820;9.244;2024-03-08T09:23:19;23.30;;;18.00;;
7193;SDS011;3638;48.820;9.244;2024-03-08T09:25:46;24.17;;;18.27;;
7193;SDS011;3638;48.820;9.244;2024-03-08T09:28:15;21.50;;;16.77;;
7193;SDS011;3638;48.820;9.244;2024-03-08T09:30:42;21.83;;;17.03;;
7193;SDS011;3638;48.820;9.244;2024-03-08T09:33:09;22.77;;;17.27;;
7193;SDS011;3638;48.820;9.244;2024-03-08T09:35:38;23.23;;;17.23;;
7193;SDS011;3638;48.820;9.244;2024-03-08T09:38:05;21.97;;;17.10;;
7193;SDS011;3638;48.820;9.244;2024-03-08T09:40:38;21.20;;;16.90;;
7193;SDS011;3638;48.820;9.244;2024-03-08T09:43:05;20.63;;;16.53;;
7193;SDS011;3638;48.820;9.244;2024-03-08T09:45:35;21.97;;;16.70;;
7193;SDS011;3638;48.820;9.244;2024-03-08T09:48:04;22.70;;;17.00;;
7193;SDS011;3638;48.820;9.244;2024-03-08T09:50:33;20.50;;;15.57;;
7193;SDS011;3638;48.820;9.244;2024-03-08T09:53:01;20.97;;;15.93;;
7193;SDS011;3638;48.820;9.244;2024-03-08T09:55:28;21.40;;;16.27;;
7193;SDS011;3638;48.820;9.244;2024-03-08T09:57:59;20.03;;;16.13;;
7193;SDS011;3638;48.820;9.244;2024-03-08T10:00:51;20.47;;;16.43;;
7193;SDS011;3638;48.820;9.244;2024-03-08T10:03:19;20.07;;;15.97;;
7193;SDS011;3638;48.820;9.244;2024-03-08T10:05:47;23.73;;;16.87;;
7193;SDS011;3638;48.820;9.244;2024-03-08T10:08:14;20.87;;;16.57;;
7193;SDS011;3638;48.820;9.244;2024-03-08T10:10:41;20.77;;;16.53;;
7193;SDS011;3638;48.820;9.244;2024-03-08T10:13:09;22.67;;;17.63;;
7193;SDS011;3638;48.820;9.244;2024-03-08T10:15:39;24.23;;;16.53;;
7193;SDS011;3638;48.820;9.244;2024-03-08T10:18:07;24.87;;;16.40;;
7193;SDS011;3638;48.820;9.244;2024-03-08T10:20:35;20.97;;;16.90;;
7193;SDS011;3638;48.820;9.244;2024-03-08T10:23:03;22.57;;;16.47;;
7193;SDS011;3638;48.820;9.244;2024-03-08T10:25:31;21.07;;;16.20;;
7193;SDS011;3638;48.820;9.244;2024-03-08T10:27:59;23.43;;;16.27;;
7193;SDS011;3638;48.820;9.244;2024-03-08T10:30:26;23.63;;;17.07;;
7193;SDS011;3638;48.820;9.244;2024-03-08T10:32:54;21.90;;;16.73;;
7193;SDS011;3638;48.820;9.244;2024-03-08T10:35:24;21.60;;;17.23;;
7193;SDS011;3638;48.820;9.244;2024-03-08T10:37:52;21.90;;;17.03;;
7193;SDS011;3638;48.820;9.244;2024-03-08T10:40:24;22.57;;;16.83;;
7193;SDS011;3638;48.820;9.244;2024-03-08T10:42:52;19.83;;;15.67;;
7193;SDS011;3638;48.820;9.244;2024-03-08T10:45:30;20.17;;;15.67;;
7193;SDS011;3638;48.820;9.244;2024-03-08T10:48:04;21.67;;;15.83;;
7193;SDS011;3638;48.820;9.244;2024-03-08T10:50:42;21.67;;;16.20;;
7193;SDS011;3638;48.820;9.244;2024-03-08T10:53:11;23.07;;;16.10;;
7193;SDS011;3638;48.820;9.244;2024-03-08T10:55:40;22.27;;;16.07;;
7193;SDS011;3638;48.820;9.244;2024-03-08T10:58:07;20.43;;;16.33;;
7193;SDS011;3638;48.820;9.244;2024-03-08T11:00:35;19.23;;;15.50;;
7193;SDS011;3638;48.820;9.244;2024-03-08T11:03:03;20.43;;;16.17;;
7193;SDS011;3638;48.820;9.244;2024-03-08T11:05:31;22.33;;;16.00;;
7193;SDS011;3638;48.820;9.244;2024-03-08T11:08:05;22.00;;;17.07;;
7193;SDS011;3638;48.820;9.244;2024-03-08T11:10:46;20.53;;;15.83;;
7193;SDS011;3638;48.820;9.244;2024-03-08T11:15:58;22.97;;;17.60;;
7193;SDS011;3638;48.820;9.244;2024-03-08T11:18:26;20.90;;;16.63;;
7193;SDS011;3638;48.820;9.244;2024-03-08T11:20:53;22.40;;;16.70;;
7193;SDS011;3638;48.820;9.244;2024-03-08T11:23:24;23.13;;;16.70;;
7193;SDS011;3638;48.820;9.244;2024-03-08T11:25:51;23.43;;;17.57;;
7193;SDS011;3638;48.820;9.244;2024-03-08T11:28:19;22.80;;;16.87;;
7193;SDS011;3638;48.820;9.244;2024-03-08T11:30:47;25.47;;;17.13;;
7193;SDS011;3638;48.820;9.244;2024-03-08T11:33:58;24.17;;;18.27;;
7193;SDS011;3638;48.820;9.244;2024-03-08T11:36:25;24.20;;;17.27;;
7193;SDS011;3638;48.820;9.244;2024-03-08T11:38:54;24.03;;;16.97;;
7193;SDS011;3638;48.820;9.244;2024-03-08T11:41:21;24.20;;;18.10;;
7193;SDS011;3638;48.820;9.244;2024-03-08T11:43:50;21.93;;;17.13;;
7193;SDS011;3638;48.820;9.244;2024-03-08T11:46:30;26.00;;;18.53;;
7193;SDS011;3638;48.820;9.244;2024-03-08T11:48:57;24.20;;;17.80;;
7193;SDS011;3638;48.820;9.244;2024-03-08T11:51:25;26.07;;;18.70;;
7193;SDS011;3638;48.820;9.244;2024-03-08T11:53:54;26.27;;;18.10;;
7193;SDS011;3638;48.820;9.244;2024-03-08T11:56:21;23.33;;;17.63;;
7193;SDS011;3638;48.820;9.244;2024-03-08T11:58:54;23.20;;;17.10;;
7193;SDS011;3638;48.820;9.244;2024-03-08T12:01:22;25.77;;;17.90;;
7193;SDS011;3638;48.820;9.244;2024-03-08T12:03:52;25.33;;;18.63;;
7193;SDS011;3638;48.820;9.244;2024-03-08T12:06:19;25.40;;;18.23;;
7193;SDS011;3638;48.820;9.244;2024-03-08T12:08:46;24.53;;;18.47;;
7193;SDS011;3638;48.820;9.244;2024-03-08T12:11:17;25.47;;;17.83;;
7193;SDS011;3638;48.820;9.244;2024-03-08T12:13:48;26.53;;;18.43;;
7193;SDS011;3638;48.820;9.244;2024-03-08T12:16:16;26.93;;;19.13;;
7193;SDS011;3638;48.820;9.244;2024-03-08T12:18:44;26.13;;;18.37;;
7193;SDS011;3638;48.820;9.244;2024-03-08T12:21:12;26.23;;;18.57;;
7193;SDS011;3638;48.820;9.244;2024-03-08T12:23:42;24.27;;;17.17;;
7193;SDS011;3638;48.820;9.244;2024-03-08T12:26:10;24.77;;;18.10;;
7193;SDS011;3638;48.820;9.244;2024-03-08T12:28:40;27.77;;;18.67;;
7193;SDS011;3638;48.820;9.244;2024-03-08T12:31:09;27.30;;;18.17;;
7193;SDS011;3638;48.820;9.244;2024-03-08T12:33:37;23.90;;;18.30;;
7193;SDS011;3638;48.820;9.244;2024-03-08T12:36:14;25.37;;;17.90;;
7193;SDS011;3638;48.820;9.244;2024-03-08T12:38:43;24.47;;;18.27;;
7193;SDS011;3638;48.820;9.244;2024-03-08T12:41:13;23.50;;;17.03;;
7193;SDS011;3638;48.820;9.244;2024-03-08T12:43:41;23.93;;;17.40;;
7193;SDS011;3638;48.820;9.244;2024-03-08T12:46:13;27.13;;;17.67;;
7193;SDS011;3638;48.820;9.244;2024-03-08T12:48:40;24.80;;;17.33;;
7193;SDS011;3638;48.820;9.244;2024-03-08T12:51:11;24.70;;;16.87;;
7193;SDS011;3638;48.820;9.244;2024-03-08T12:53:39;24.70;;;16.87;;
7193;SDS011;3638;48.820;9.244;2024-03-08T12:56:09;25.57;;;17.70;;
7193;SDS011;3638;48.820;9.244;2024-03-08T12:58:36;23.13;;;16.50;;
7193;SDS011;3638;48.820;9.244;2024-03-08T13:01:05;27.73;;;19.20;;
7193;SDS011;3638;48.820;9.244;2024-03-08T13:03:32;24.53;;;16.50;;
7193;SDS011;3638;48.820;9.244;2024-03-08T13:06:00;25.20;;;16.97;;
7193;SDS011;3638;48.820;9.244;2024-03-08T13:08:28;22.50;;;16.57;;
7193;SDS011;3638;48.820;9.244;2024-03-08T13:10:56;25.97;;;18.03;;
7193;SDS011;3638;48.820;9.244;2024-03-08T13:13:24;24.93;;;17.83;;
7193;SDS011;3638;48.820;9.244;2024-03-08T13:15:51;22.37;;;15.67;;
7193;SDS011;3638;48.820;9.244;2024-03-08T13:18:20;24.03;;;16.97;;
7193;SDS011;3638;48.820;9.244;2024-03-08T13:20:48;24.73;;;18.63;;
7193;SDS011;3638;48.820;9.244;2024-03-08T13:23:17;23.57;;;16.40;;
7193;SDS011;3638;48.820;9.244;2024-03-08T13:25:44;25.43;;;18.27;;
7193;SDS011;3638;48.820;9.244;2024-03-08T13:28:12;26.17;;;16.97;;
7193;SDS011;3638;48.820;9.244;2024-03-08T13:30:40;23.97;;;17.10;;
7193;SDS011;3638;48.820;9.244;2024-03-08T13:33:09;21.97;;;16.20;;
7193;SDS011;3638;48.820;9.244;2024-03-08T13:35:37;22.83;;;16.80;;
7193;SDS011;3638;48.820;9.244;2024-03-08T13:38:06;25.80;;;17.47;;
7193;SDS011;3638;48.820;9.244;2024-03-08T13:40:36;22.77;;;16.70;;
7193;SDS011;3638;48.820;9.244;2024-03-08T13:43:05;23.93;;;16.73;;
7193;SDS011;3638;48.820;9.244;2024-03-08T13:45:33;23.40;;;16.70;;
7193;SDS011;3638;48.820;9.244;2024-03-08T13:48:03;22.87;;;16.07;;
7193;SDS011;3638;48.820;9.244;2024-03-08T13:50:30;23.77;;;16.67;;
7193;SDS011;3638;48.820;9.244;2024-03-08T13:52:59;25.23;;;17.53;;
7193;SDS011;3638;48.820;9.244;2024-03-08T13:55:26;23.37;;;16.40;;
7193;SDS011;3638;48.820;9.244;2024-03-08T13:57:53;23.77;;;16.47;;
7193;SDS011;3638;48.820;9.244;2024-03-08T14:00:22;25.00;;;17.20;;
7193;SDS011;3638;48.820;9.244;2024-03-08T14:02:52;24.37;;;16.37;;
7193;SDS011;3638;48.820;9.244;2024-03-08T14:05:19;23.10;;;16.17;;
7193;SDS011;3638;48.820;9.244;2024-03-08T14:07:47;22.43;;;16.70;;
7193;SDS011;3638;48.820;9.244;2024-03-08T14:10:16;21.33;;;16.20;;
7193;SDS011;3638;48.820;9.244;2024-03-08T14:12:44;20.97;;;15.50;;
7193;SDS011;3638;48.820;9.244;2024-03-08T14:15:15;23.80;;;16.70;;
7193;SDS011;3638;48.820;9.244;2024-03-08T14:17:43;24.13;;;17.10;;
7193;SDS011;3638;48.820;9.244;2024-03-08T14:20:11;22.63;;;16.50;;
7193;SDS011;3638;48.820;9.244;2024-03-08T14:22:39;21.43;;;15.70;;
7193;SDS011;3638;48.820;9.244;2024-03-08T14:25:06;21.47;;;15.53;;
7193;SDS011;3638;48.820;9.244;2024-03-08T14:27:43;22.77;;;15.93;;
7193;SDS011;3638;48.820;9.244;2024-03-08T14:30:10;22.00;;;16.07;;
7193;SDS011;3638;48.820;9.244;2024-03-08T14:32:38;21.33;;;16.20;;
7193;SDS011;3638;48.820;9.244;2024-03-08T14:35:06;20.57;;;15.73;;
7193;SDS011;3638;48.820;9.244;2024-03-08T14:37:36;22.30;;;16.03;;
7193;SDS011;3638;48.820;9.244;2024-03-08T14:40:03;22.53;;;15.57;;
7193;SDS011;3638;48.820;9.244;2024-03-08T14:42:33;23.37;;;15.80;;
7193;SDS011;3638;48.820;9.244;2024-03-08T14:45:02;23.73;;;16.10;;
7193;SDS011;3638;48.820;9.244;2024-03-08T14:47:30;21.07;;;15.17;;
7193;SDS011;3638;48.820;9.244;2024-03-08T14:49:59;20.73;;;14.83;;
7193;SDS011;3638;48.820;9.244;2024-03-08T14:52:32;23.47;;;15.93;;
7193;SDS011;3638;48.820;9.244;2024-03-08T14:55:00;23.17;;;15.47;;
7193;SDS011;3638;48.820;9.244;2024-03-08T14:57:28;23.63;;;16.00;;